createdAt,value
2023-03-01T00:01:41.281Z,2.63
2023-03-01T00:04:08.615Z,2.56
2023-03-01T00:06:36.238Z,2.59
2023-03-01T00:09:04.059Z,2.40
2023-03-01T00:11:33.063Z,2.50
2023-03-01T00:14:07.735Z,2.49
2023-03-01T00:16:39.873Z,2.34
2023-03-01T00:19:09.813Z,2.43
2023-03-01T00:21:38.663Z,2.30
2023-03-01T00:24:06.241Z,2.41
2023-03-01T00:26:33.798Z,2.30
2023-03-01T00:29:01.636Z,2.41
2023-03-01T00:31:31.034Z,2.09
2023-03-01T00:34:00.546Z,2.00
2023-03-01T00:36:31.412Z,1.96
2023-03-01T00:38:59.034Z,1.90
2023-03-01T00:41:30.162Z,1.97
2023-03-01T00:43:57.665Z,2.03
2023-03-01T00:46:28.488Z,2.15
2023-03-01T00:48:56.246Z,2.05
2023-03-01T00:51:26.805Z,2.09
2023-03-01T00:53:55.828Z,1.96
2023-03-01T00:56:23.732Z,2.09
2023-03-01T00:58:51.834Z,2.14
2023-03-01T01:01:23.713Z,2.28
2023-03-01T01:03:54.174Z,2.18
2023-03-01T01:06:29.147Z,2.14
2023-03-01T01:08:57.073Z,1.78
2023-03-01T01:11:25.854Z,1.91
2023-03-01T01:13:54.332Z,1.87
2023-03-01T01:16:23.305Z,2.05
2023-03-01T01:18:50.760Z,2.08
2023-03-01T01:21:20.368Z,2.04
2023-03-01T01:23:48.592Z,1.99
2023-03-01T01:26:23.357Z,1.97
2023-03-01T01:28:51.303Z,2.16
2023-03-01T01:31:19.653Z,2.16
2023-03-01T01:33:47.334Z,2.11
2023-03-01T01:36:14.732Z,2.16
2023-03-01T01:38:43.548Z,2.00
2023-03-01T01:41:12.500Z,2.15
2023-03-01T01:43:45.907Z,1.94
2023-03-01T01:46:33.487Z,1.94
2023-03-01T01:49:21.247Z,1.88
2023-03-01T01:51:49.689Z,2.10
2023-03-01T01:54:21.728Z,2.10
2023-03-01T01:56:56.671Z,2.12
2023-03-01T01:59:25.807Z,1.87
2023-03-01T02:01:53.782Z,1.83
2023-03-01T02:04:21.602Z,1.92
2023-03-01T02:07:11.998Z,2.09
2023-03-01T02:09:39.788Z,1.56
2023-03-01T02:12:07.969Z,1.55
2023-03-01T02:14:35.391Z,1.61
2023-03-01T02:17:02.888Z,1.73
2023-03-01T02:20:07.989Z,1.61
2023-03-01T02:22:39.321Z,1.70
2023-03-01T02:25:19.185Z,1.42
2023-03-01T02:27:50.074Z,1.54
2023-03-01T02:30:17.302Z,1.62
2023-03-01T02:32:45.185Z,1.70
2023-03-01T02:35:14.791Z,1.57
2023-03-01T02:37:43.766Z,1.42
2023-03-01T02:40:14.934Z,1.54
2023-03-01T02:42:49.251Z,1.54
2023-03-01T02:45:17.100Z,1.52
2023-03-01T02:47:44.513Z,1.52
2023-03-01T02:50:44.532Z,1.49
2023-03-01T02:53:21.173Z,1.44
2023-03-01T02:55:48.630Z,1.44
2023-03-01T02:58:16.167Z,1.62
2023-03-01T03:00:48.061Z,1.50
2023-03-01T03:03:18.412Z,1.51
2023-03-01T03:05:45.685Z,1.79
2023-03-01T03:08:13.106Z,1.53
2023-03-01T03:10:42.051Z,1.58
2023-03-01T03:13:12.169Z,1.26
2023-03-01T03:15:40.859Z,1.38
2023-03-01T03:18:15.834Z,1.37
2023-03-01T03:20:44.849Z,1.20
2023-03-01T03:23:12.526Z,1.57
2023-03-01T03:25:40.091Z,1.57
2023-03-01T03:28:10.957Z,1.72
2023-03-01T03:30:40.866Z,1.94
2023-03-01T03:33:13.168Z,1.78
2023-03-01T03:35:46.460Z,1.86
2023-03-01T03:38:17.888Z,1.48
2023-03-01T03:41:05.803Z,1.52
2023-03-01T03:43:35.243Z,1.31
2023-03-01T03:46:06.760Z,1.42
2023-03-01T03:48:36.332Z,1.44
2023-03-01T03:51:06.319Z,1.43
2023-03-01T03:53:33.921Z,1.24
2023-03-01T03:56:01.408Z,1.09
2023-03-01T03:58:28.752Z,1.22
2023-03-01T04:00:58.157Z,1.13
2023-03-01T04:03:26.852Z,0.97
2023-03-01T04:05:54.419Z,1.04
2023-03-01T04:08:23.318Z,1.17
2023-03-01T04:10:52.541Z,1.37
2023-03-01T04:13:23.012Z,1.44
2023-03-01T04:15:51.733Z,1.30
2023-03-01T04:18:20.675Z,1.27
2023-03-01T04:20:48.358Z,1.39
2023-03-01T04:23:20.080Z,1.38
2023-03-01T04:25:55.904Z,1.49
2023-03-01T04:28:28.026Z,1.52
2023-03-01T04:30:57.177Z,1.48
2023-03-01T04:33:25.495Z,1.53
2023-03-01T04:35:53.085Z,1.65
2023-03-01T04:38:21.017Z,1.50
2023-03-01T04:40:48.711Z,1.21
2023-03-01T04:43:16.476Z,1.25
2023-03-01T04:45:43.851Z,1.41
2023-03-01T04:48:11.518Z,1.20
2023-03-01T04:50:39.976Z,1.14
2023-03-01T04:53:07.345Z,1.44
2023-03-01T04:55:34.849Z,1.58
2023-03-01T04:58:02.124Z,1.45
2023-03-01T05:00:32.304Z,1.40
2023-03-01T05:03:03.077Z,1.54
2023-03-01T05:05:34.029Z,1.42
2023-03-01T05:08:04.518Z,1.30
2023-03-01T05:10:33.788Z,1.22
2023-03-01T05:13:01.109Z,1.15
2023-03-01T05:15:32.119Z,1.20
2023-03-01T05:18:00.726Z,1.05
2023-03-01T05:20:29.822Z,1.17
2023-03-01T05:23:00.680Z,1.17
2023-03-01T05:25:28.227Z,1.24
2023-03-01T05:27:55.543Z,1.33
2023-03-01T05:30:23.569Z,1.22
2023-03-01T05:32:56.924Z,1.11
2023-03-01T05:35:24.619Z,1.04
2023-03-01T05:37:52.531Z,1.01
2023-03-01T05:40:21.869Z,1.11
2023-03-01T05:42:57.257Z,1.22
2023-03-01T05:45:26.994Z,1.06
2023-03-01T05:47:56.109Z,1.41
2023-03-01T05:50:29.270Z,1.12
2023-03-01T05:53:09.603Z,1.19
2023-03-01T05:55:37.308Z,1.09
2023-03-01T05:58:07.991Z,1.08
2023-03-01T06:00:35.788Z,1.14
2023-03-01T06:03:03.401Z,1.14
2023-03-01T06:05:31.181Z,1.01
2023-03-01T06:08:02.629Z,1.01
2023-03-01T06:10:30.367Z,0.68
2023-03-01T06:12:59.143Z,0.54
2023-03-01T06:15:27.251Z,0.64
2023-03-01T06:18:00.042Z,0.64
2023-03-01T06:20:29.772Z,0.48
2023-03-01T06:22:57.665Z,0.49
2023-03-01T06:25:26.757Z,0.62
2023-03-01T06:27:54.221Z,0.72
2023-03-01T06:30:23.458Z,0.72
2023-03-01T06:32:50.997Z,0.65
2023-03-01T06:35:19.627Z,0.65
2023-03-01T06:37:48.428Z,0.88
2023-03-01T06:40:16.675Z,1.03
2023-03-01T06:42:48.281Z,0.98
2023-03-01T06:45:15.861Z,0.64
2023-03-01T06:47:43.342Z,0.74
2023-03-01T06:50:11.686Z,0.78
2023-03-01T06:52:39.473Z,0.59
2023-03-01T06:55:07.634Z,0.60
2023-03-01T06:57:35.006Z,0.49
2023-03-01T07:00:03.578Z,0.65
2023-03-01T07:02:30.931Z,0.69
2023-03-01T07:04:58.579Z,0.60
2023-03-01T07:07:26.743Z,0.64
2023-03-01T07:09:54.498Z,0.82
2023-03-01T07:12:21.821Z,0.67
2023-03-01T07:14:49.215Z,0.60
2023-03-01T07:17:16.606Z,0.66
2023-03-01T07:19:44.887Z,0.65
2023-03-01T07:22:12.412Z,0.78
2023-03-01T07:24:39.694Z,1.02
2023-03-01T07:27:07.527Z,0.85
2023-03-01T07:29:37.435Z,0.94
2023-03-01T07:32:05.308Z,0.89
2023-03-01T07:34:32.833Z,1.18
2023-03-01T07:37:00.234Z,0.96
2023-03-01T07:39:27.667Z,0.89
2023-03-01T07:41:55.077Z,1.10
2023-03-01T07:44:23.558Z,0.87
2023-03-01T07:46:51.149Z,0.84
2023-03-01T07:49:18.804Z,0.74
2023-03-01T07:51:46.318Z,0.78
2023-03-01T07:54:13.536Z,0.80
2023-03-01T07:56:41.801Z,1.04
2023-03-01T07:59:09.226Z,1.08
2023-03-01T08:01:36.587Z,1.09
2023-03-01T08:04:05.758Z,1.17
2023-03-01T08:06:35.136Z,1.19
2023-03-01T08:09:03.343Z,1.34
2023-03-01T08:11:31.281Z,1.53
2023-03-01T08:13:58.842Z,1.40
2023-03-01T08:16:27.306Z,1.35
2023-03-01T08:18:57.656Z,1.45
2023-03-01T08:21:25.001Z,1.45
2023-03-01T08:23:52.649Z,1.50
2023-03-01T08:26:21.746Z,1.41
2023-03-01T08:28:50.714Z,1.50
2023-03-01T08:31:28.530Z,1.46
2023-03-01T08:33:58.515Z,1.63
2023-03-01T08:36:28.535Z,1.70
2023-03-01T08:38:56.505Z,1.68
2023-03-01T08:41:24.461Z,1.80
2023-03-01T08:43:52.126Z,1.89
2023-03-01T08:46:19.617Z,1.79
2023-03-01T08:48:46.933Z,1.97
2023-03-01T08:51:17.241Z,1.72
2023-03-01T08:53:45.129Z,1.91
2023-03-01T08:56:14.049Z,1.99
2023-03-01T08:58:41.412Z,2.26
2023-03-01T09:01:10.155Z,2.36
2023-03-01T09:03:37.990Z,2.37
2023-03-01T09:06:06.931Z,1.78
2023-03-01T09:08:39.356Z,1.88
2023-03-01T09:11:09.276Z,1.93
2023-03-01T09:13:36.832Z,2.03
2023-03-01T09:16:06.169Z,2.32
2023-03-01T09:18:34.331Z,1.92
2023-03-01T09:21:09.526Z,1.96
2023-03-01T09:23:41.359Z,2.38
2023-03-01T09:26:10.850Z,2.21
2023-03-01T09:28:38.878Z,2.13
2023-03-01T09:31:06.620Z,2.41
2023-03-01T09:33:34.309Z,2.28
2023-03-01T09:36:03.869Z,2.37
2023-03-01T09:38:31.522Z,2.36
2023-03-01T09:40:58.977Z,2.55
2023-03-01T09:43:35.840Z,2.82
2023-03-01T09:46:09.319Z,2.99
2023-03-01T09:48:44.828Z,2.93
2023-03-01T09:51:19.529Z,2.75
2023-03-01T09:53:46.859Z,2.71
2023-03-01T09:56:19.878Z,2.89
2023-03-01T09:58:55.474Z,2.69
2023-03-01T10:02:04.877Z,2.71
2023-03-01T10:04:43.599Z,2.80
2023-03-01T10:07:19.196Z,2.81
2023-03-01T10:09:47.156Z,2.94
2023-03-01T10:12:46.738Z,2.93
2023-03-01T10:15:26.747Z,2.95
2023-03-01T10:17:58.064Z,2.81
2023-03-01T10:20:26.315Z,2.93
2023-03-01T10:22:56.125Z,2.86
2023-03-01T10:25:23.446Z,2.91
2023-03-01T10:27:54.597Z,2.84
2023-03-01T10:30:27.575Z,3.01
2023-03-01T10:32:55.328Z,3.09
2023-03-01T10:35:28.295Z,3.32
2023-03-01T10:38:08.016Z,3.38
2023-03-01T10:40:36.837Z,3.12
2023-03-01T10:43:06.343Z,3.35
2023-03-01T10:45:39.292Z,3.54
2023-03-01T10:48:09.438Z,3.64
2023-03-01T10:50:40.346Z,3.83
2023-03-01T10:53:30.206Z,3.70
2023-03-01T10:56:07.103Z,3.61
2023-03-01T10:58:37.295Z,3.44
2023-03-01T11:01:16.942Z,3.37
2023-03-01T11:03:44.366Z,3.59
2023-03-01T11:06:12.066Z,3.79
2023-03-01T11:08:40.586Z,3.88
2023-03-01T11:11:34.377Z,3.64
2023-03-01T11:14:25.043Z,3.80
2023-03-01T11:17:27.048Z,3.86
2023-03-01T11:20:15.637Z,4.02
2023-03-01T11:22:55.545Z,3.90
2023-03-01T11:25:37.162Z,3.88
2023-03-01T11:28:08.286Z,3.99
2023-03-01T11:31:08.631Z,4.15
2023-03-01T11:33:36.871Z,4.14
2023-03-01T11:36:09.663Z,4.42
2023-03-01T11:38:37.848Z,4.58
2023-03-01T11:41:17.193Z,4.59
2023-03-01T11:44:00.332Z,4.54
2023-03-01T11:46:34.341Z,4.52
2023-03-01T11:49:26.002Z,4.73
2023-03-01T11:52:16.451Z,4.65
2023-03-01T11:55:17.993Z,4.96
2023-03-01T11:58:04.026Z,5.13
2023-03-01T12:00:45.661Z,5.01
2023-03-01T12:03:31.646Z,4.86
2023-03-01T12:06:17.236Z,5.01
2023-03-01T12:09:07.891Z,4.86
2023-03-01T12:12:13.136Z,4.85
2023-03-01T12:14:50.461Z,5.16
2023-03-01T12:17:26.587Z,5.25
2023-03-01T12:20:22.132Z,5.03
2023-03-01T12:23:20.377Z,5.01
2023-03-01T12:26:07.934Z,5.25
2023-03-01T12:28:42.038Z,5.49
2023-03-01T12:31:44.846Z,5.44
2023-03-01T12:34:30.448Z,5.51
2023-03-01T12:37:19.887Z,5.60
2023-03-01T12:39:56.464Z,5.71
2023-03-01T12:42:37.306Z,5.56
2023-03-01T12:45:43.287Z,5.58
2023-03-01T12:48:39.736Z,5.74
2023-03-01T12:51:13.322Z,6.07
2023-03-01T12:53:43.441Z,6.20
2023-03-01T12:56:13.739Z,6.06
2023-03-01T12:59:06.213Z,6.17
2023-03-01T13:01:52.245Z,6.04
2023-03-01T13:04:50.234Z,5.97
2023-03-01T13:07:30.071Z,6.03
2023-03-01T13:10:24.594Z,6.11
2023-03-01T13:13:14.367Z,6.24
2023-03-01T13:15:42.294Z,6.27
2023-03-01T13:18:12.648Z,6.40
2023-03-01T13:20:42.909Z,6.11
2023-03-01T13:23:15.150Z,6.12
2023-03-01T13:26:02.306Z,6.21
2023-03-01T13:28:45.098Z,6.41
2023-03-01T13:31:32.507Z,6.23
2023-03-01T13:34:01.687Z,6.51
2023-03-01T13:36:29.724Z,6.45
2023-03-01T13:39:29.613Z,6.48
2023-03-01T13:41:58.482Z,6.53
2023-03-01T13:44:33.722Z,6.53
2023-03-01T13:47:08.577Z,6.68
2023-03-01T13:50:00.639Z,7.06
2023-03-01T13:52:30.580Z,6.98
2023-03-01T13:54:58.179Z,6.70
2023-03-01T13:57:28.900Z,6.75
2023-03-01T13:59:56.307Z,6.75
2023-03-01T14:02:23.798Z,6.68
2023-03-01T14:05:01.468Z,6.76
2023-03-01T14:07:32.078Z,6.71
2023-03-01T14:10:01.521Z,6.65
2023-03-01T14:13:11.400Z,6.69
2023-03-01T14:15:57.865Z,7.03
2023-03-01T14:18:53.223Z,6.92
2023-03-01T14:21:20.644Z,6.72
2023-03-01T14:23:47.956Z,6.70
2023-03-01T14:26:22.231Z,6.67
2023-03-01T14:28:50.612Z,6.86
2023-03-01T14:31:40.955Z,6.83
2023-03-01T14:34:23.890Z,6.93
2023-03-01T14:36:51.329Z,6.91
2023-03-01T14:39:22.159Z,6.92
2023-03-01T14:41:49.733Z,6.85
2023-03-01T14:44:23.968Z,6.77
2023-03-01T14:46:56.294Z,6.67
2023-03-01T14:49:27.293Z,6.75
2023-03-01T14:52:06.402Z,6.59
2023-03-01T14:54:46.096Z,6.78
2023-03-01T14:57:27.426Z,6.97
2023-03-01T14:59:57.044Z,6.94
2023-03-01T15:02:29.304Z,6.98
2023-03-01T15:05:01.974Z,6.96
2023-03-01T15:07:32.758Z,6.95
2023-03-01T15:10:00.978Z,6.88
2023-03-01T15:12:28.311Z,6.88
2023-03-01T15:15:03.861Z,6.77
2023-03-01T15:17:34.190Z,6.94
2023-03-01T15:20:04.685Z,6.96
2023-03-01T15:22:32.244Z,6.83
2023-03-01T15:25:00.049Z,7.00
2023-03-01T15:27:28.407Z,6.89
2023-03-01T15:30:00.800Z,6.90
2023-03-01T15:32:34.700Z,6.89
2023-03-01T15:35:57.495Z,6.61
2023-03-01T15:38:59.001Z,6.76
2023-03-01T15:41:48.029Z,6.82
2023-03-01T15:44:29.931Z,6.94
2023-03-01T15:47:03.145Z,6.75
2023-03-01T15:49:49.609Z,6.68
2023-03-01T15:52:40.215Z,6.83
2023-03-01T15:55:35.544Z,6.78
2023-03-01T15:58:18.601Z,6.75
2023-03-01T16:01:00.317Z,6.63
2023-03-01T16:03:29.331Z,6.51
2023-03-01T16:05:56.757Z,6.52
2023-03-01T16:08:24.448Z,6.51
2023-03-01T16:10:52.577Z,6.56
2023-03-01T16:13:20.374Z,6.49
2023-03-01T16:15:47.901Z,6.44
2023-03-01T16:18:15.484Z,6.50
2023-03-01T16:20:44.000Z,6.40
2023-03-01T16:23:12.721Z,6.41
2023-03-01T16:25:40.202Z,6.56
2023-03-01T16:28:11.044Z,6.39
2023-03-01T16:30:40.653Z,6.56
2023-03-01T16:33:28.842Z,6.55
2023-03-01T16:35:56.909Z,6.71
2023-03-01T16:38:24.621Z,6.49
2023-03-01T16:40:53.212Z,6.34
2023-03-01T16:43:20.716Z,6.36
2023-03-01T16:45:48.118Z,6.30
2023-03-01T16:48:15.748Z,6.31
2023-03-01T16:50:43.030Z,6.36
2023-03-01T16:53:10.903Z,6.26
2023-03-01T16:55:39.053Z,6.38
2023-03-01T16:58:06.831Z,6.30
2023-03-01T17:00:34.161Z,6.25
2023-03-01T17:03:01.507Z,6.21
2023-03-01T17:05:28.834Z,6.24
2023-03-01T17:07:59.118Z,6.33
2023-03-01T17:10:27.038Z,6.21
2023-03-01T17:12:54.920Z,6.23
2023-03-01T17:15:22.333Z,6.04
2023-03-01T17:17:52.040Z,6.06
2023-03-01T17:20:20.141Z,5.97
2023-03-01T17:22:47.603Z,5.99
2023-03-01T17:25:15.963Z,5.90
2023-03-01T17:27:43.434Z,5.97
2023-03-01T17:30:12.705Z,6.04
2023-03-01T17:32:40.344Z,6.12
2023-03-01T17:35:08.836Z,5.92
2023-03-01T17:37:37.252Z,5.86
2023-03-01T17:40:05.554Z,5.92
2023-03-01T17:42:33.492Z,5.77
2023-03-01T17:45:02.850Z,5.82
2023-03-01T17:47:30.223Z,5.92
2023-03-01T17:49:57.498Z,5.80
2023-03-01T17:52:24.851Z,5.92
2023-03-01T17:54:52.106Z,5.77
2023-03-01T17:57:19.613Z,5.99
2023-03-01T17:59:47.030Z,6.12
2023-03-01T18:02:14.458Z,5.91
2023-03-01T18:04:41.720Z,5.80
2023-03-01T18:07:09.125Z,5.73
2023-03-01T18:09:36.552Z,5.72
2023-03-01T18:12:04.031Z,5.62
2023-03-01T18:14:33.910Z,5.58
2023-03-01T18:17:06.624Z,5.63
2023-03-01T18:19:34.312Z,5.61
2023-03-01T18:22:01.498Z,5.68
2023-03-01T18:24:28.908Z,5.90
2023-03-01T18:26:56.241Z,5.93
2023-03-01T18:29:23.579Z,5.92
2023-03-01T18:31:51.326Z,6.05
2023-03-01T18:34:19.103Z,6.05
2023-03-01T18:37:00.478Z,6.13
2023-03-01T18:39:33.613Z,5.83
2023-03-01T18:42:00.928Z,5.68
2023-03-01T18:44:28.275Z,5.51
2023-03-01T18:46:58.355Z,5.62
2023-03-01T18:49:26.335Z,5.59
2023-03-01T18:51:53.416Z,5.87
2023-03-01T18:54:20.824Z,5.83
2023-03-01T18:56:48.977Z,5.61
2023-03-01T18:59:16.437Z,5.85
2023-03-01T19:01:43.825Z,5.84
2023-03-01T19:04:11.866Z,5.39
2023-03-01T19:06:39.459Z,5.51
2023-03-01T19:09:08.016Z,5.53
2023-03-01T19:11:35.783Z,5.67
2023-03-01T19:14:04.148Z,5.43
2023-03-01T19:16:33.385Z,5.29
2023-03-01T19:19:02.780Z,5.22
2023-03-01T19:21:32.141Z,5.33
2023-03-01T19:24:02.603Z,5.25
2023-03-01T19:26:31.444Z,5.31
2023-03-01T19:28:59.497Z,5.44
2023-03-01T19:31:28.959Z,5.43
2023-03-01T19:34:10.044Z,5.28
2023-03-01T19:36:43.217Z,5.53
2023-03-01T19:39:13.543Z,5.56
2023-03-01T19:41:42.773Z,5.31
2023-03-01T19:44:10.210Z,5.32
2023-03-01T19:46:37.724Z,5.25
2023-03-01T19:49:05.888Z,5.37
2023-03-01T19:51:36.103Z,5.17
2023-03-01T19:54:03.859Z,5.29
2023-03-01T19:56:32.083Z,5.22
2023-03-01T19:59:00.742Z,5.55
2023-03-01T20:01:29.758Z,5.26
2023-03-01T20:03:57.316Z,5.02
2023-03-01T20:06:25.786Z,5.24
2023-03-01T20:08:53.197Z,5.20
2023-03-01T20:11:21.258Z,5.02
2023-03-01T20:13:48.754Z,5.08
2023-03-01T20:16:18.897Z,5.00
2023-03-01T20:18:46.350Z,5.12
2023-03-01T20:21:23.649Z,5.02
2023-03-01T20:23:52.637Z,5.25
2023-03-01T20:26:25.549Z,5.15
2023-03-01T20:28:55.389Z,5.22
2023-03-01T20:31:29.750Z,5.12
2023-03-01T20:33:59.045Z,4.98
2023-03-01T20:36:27.800Z,5.02
2023-03-01T20:38:55.730Z,4.85
2023-03-01T20:41:26.441Z,4.90
2023-03-01T20:43:56.489Z,4.86
2023-03-01T20:46:26.632Z,5.14
2023-03-01T20:48:54.287Z,5.18
2023-03-01T20:51:21.687Z,5.08
2023-03-01T20:53:49.573Z,5.35
2023-03-01T20:56:18.177Z,5.21
2023-03-01T20:59:08.292Z,5.05
2023-03-01T21:01:36.908Z,5.27
2023-03-01T21:04:04.438Z,5.22
2023-03-01T21:06:32.448Z,5.11
2023-03-01T21:09:00.003Z,4.98
2023-03-01T21:11:27.601Z,5.01
2023-03-01T21:13:55.508Z,5.02
2023-03-01T21:16:23.296Z,5.15
2023-03-01T21:18:50.571Z,4.79
2023-03-01T21:21:20.981Z,4.95
2023-03-01T21:23:48.825Z,4.67
2023-03-01T21:26:19.492Z,4.77
2023-03-01T21:28:48.148Z,4.64
2023-03-01T21:31:17.004Z,4.67
2023-03-01T21:33:46.947Z,4.53
2023-03-01T21:36:14.974Z,4.41
2023-03-01T21:38:43.747Z,4.37
2023-03-01T21:41:14.159Z,4.53
2023-03-01T21:43:43.230Z,4.58
2023-03-01T21:46:14.134Z,4.57
2023-03-01T21:48:44.273Z,4.58
2023-03-01T21:51:15.108Z,4.48
2023-03-01T21:53:43.227Z,4.57
2023-03-01T21:56:22.353Z,4.52
2023-03-01T21:58:49.995Z,4.32
2023-03-01T22:01:20.178Z,4.28
2023-03-01T22:03:47.961Z,4.47
2023-03-01T22:06:19.947Z,4.20
2023-03-01T22:08:50.275Z,4.38
2023-03-01T22:11:18.657Z,4.68
2023-03-01T22:13:49.561Z,4.33
2023-03-01T22:16:19.220Z,4.39
2023-03-01T22:18:46.964Z,4.22
2023-03-01T22:21:14.560Z,4.30
2023-03-01T22:23:42.693Z,4.24
2023-03-01T22:26:25.041Z,4.28
2023-03-01T22:28:53.483Z,4.41
2023-03-01T22:31:21.577Z,4.32
2023-03-01T22:33:49.407Z,4.30
2023-03-01T22:36:16.879Z,4.12
2023-03-01T22:38:44.300Z,4.11
2023-03-01T22:41:11.562Z,4.18
2023-03-01T22:43:39.052Z,4.32
2023-03-01T22:46:12.002Z,4.18
2023-03-01T22:48:39.877Z,3.98
2023-03-01T22:51:07.585Z,3.92
2023-03-01T22:53:35.098Z,4.13
2023-03-01T22:56:24.102Z,4.34
2023-03-01T22:58:51.473Z,4.18
2023-03-01T23:01:21.242Z,4.17
2023-03-01T23:03:49.082Z,3.96
2023-03-01T23:06:18.137Z,4.12
2023-03-01T23:08:56.007Z,4.05
2023-03-01T23:11:26.030Z,4.06
2023-03-01T23:13:56.504Z,4.08
2023-03-01T23:16:27.017Z,4.40
2023-03-01T23:18:56.057Z,3.60
2023-03-01T23:21:23.558Z,3.47
2023-03-01T23:23:51.171Z,3.64
2023-03-01T23:26:18.836Z,3.71
2023-03-01T23:28:47.476Z,3.77
2023-03-01T23:31:15.476Z,3.67
2023-03-01T23:33:45.165Z,3.80
2023-03-01T23:36:22.588Z,3.82
2023-03-01T23:38:53.639Z,3.69
2023-03-01T23:41:24.534Z,3.87
2023-03-01T23:43:54.218Z,3.90
2023-03-01T23:46:23.626Z,3.84
2023-03-01T23:48:51.369Z,3.87
2023-03-01T23:51:19.191Z,3.78
2023-03-01T23:53:56.109Z,3.80
2023-03-01T23:56:28.958Z,3.81
2023-03-01T23:58:58.693Z,3.76
